EWG6SW LEIB-EDDL
Flight info
| Callsign | EWG6SW |
|---|---|
| Flight time | 2h 3m |
| Altitude | 36000 |
| Route | KABRE DCT ELTAN DCT MHN DCT MEROS DCT LAPIT DCT CHELY DCT LUMAS DCT SOSUR DCT SECON DCT ODIXU DCT MAXIR DCT LUSOL DCT BODRU DCT OKTET DCT IRMAR DCT KINES DCT VANAS DCT MOBLO DCT UBIMA DCT GILIR DCT PENDU DCT IXILU DCT GIVOR DCT SORAL DCT IBERA/N0440F320 DCT DIK N853 ARCKY T853 NVO T857 BIKMU BIKMU1A |
| Aircraft | A320/M-SDE3FGHIRWY/LB1 |
Departure
| Time | 2026-05-06 14:16 |
|---|---|
| Airport | Ibiza Airport (LEIB) |
Arrival
| Time | 2026-05-06 16:20 |
|---|---|
| Airport | Düsseldorf Airport (EDDL) |
| Time | Latitude | Longitude | Altitude | Speed | Heading |
|---|---|---|---|---|---|
| 2026-05-06 13:43 | 38.87567 | 1.36916 | 9 ft | 0 kts | 333° |
| 2026-05-06 14:08 | 38.87561 | 1.36919 | 9 ft | 4 kts | 332° |
| 2026-05-06 14:08 | 38.87538 | 1.36935 | 10 ft | 4 kts | 328° |
| 2026-05-06 14:09 | 38.87519 | 1.36952 | 10 ft | 2 kts | 312° |
| 2026-05-06 14:09 | 38.87512 | 1.36965 | 9 ft | 2 kts | 274° |
| 2026-05-06 14:09 | 38.87512 | 1.36979 | 9 ft | 2 kts | 249° |
| 2026-05-06 14:09 | 38.87517 | 1.36992 | 9 ft | 2 kts | 242° |
| 2026-05-06 14:10 | 38.87520 | 1.36999 | 11 ft | 0 kts | 242° |
| 2026-05-06 14:12 | 38.87515 | 1.36988 | 8 ft | 5 kts | 242° |
| 2026-05-06 14:12 | 38.87491 | 1.36930 | 9 ft | 9 kts | 242° |
| 2026-05-06 14:13 | 38.87457 | 1.36848 | 8 ft | 12 kts | 242° |
| 2026-05-06 14:13 | 38.87401 | 1.36799 | 8 ft | 11 kts | 164° |
| 2026-05-06 14:13 | 38.87327 | 1.36847 | 8 ft | 13 kts | 153° |
| 2026-05-06 14:13 | 38.87260 | 1.36802 | 9 ft | 14 kts | 243° |
| 2026-05-06 14:14 | 38.87210 | 1.36678 | 8 ft | 17 kts | 243° |
| 2026-05-06 14:14 | 38.87151 | 1.36534 | 8 ft | 19 kts | 242° |
| 2026-05-06 14:14 | 38.87085 | 1.36374 | 8 ft | 20 kts | 242° |
| 2026-05-06 14:14 | 38.87031 | 1.36243 | 9 ft | 15 kts | 240° |
| 2026-05-06 14:15 | 38.86967 | 1.36228 | 7 ft | 11 kts | 153° |
| 2026-05-06 14:15 | 38.86887 | 1.36280 | 5 ft | 13 kts | 148° |
| 2026-05-06 14:15 | 38.86889 | 1.36359 | 4 ft | 11 kts | 62° |
| 2026-05-06 14:15 | 38.86929 | 1.36454 | 4 ft | 16 kts | 62° |
| 2026-05-06 14:16 | 38.87090 | 1.36841 | 7 ft | 84 kts | 62° |
| 2026-05-06 14:16 | 38.87458 | 1.37734 | 4 ft | 140 kts | 62° |
| 2026-05-06 14:16 | 38.87979 | 1.38984 | 227 ft | 163 kts | 61° |
| 2026-05-06 14:16 | 38.88402 | 1.40334 | 829 ft | 166 kts | 79° |
| 2026-05-06 14:17 | 38.88627 | 1.41796 | 1426 ft | 168 kts | 77° |
| 2026-05-06 14:17 | 38.88884 | 1.43277 | 1883 ft | 175 kts | 76° |
| 2026-05-06 14:17 | 38.89194 | 1.44918 | 1992 ft | 202 kts | 75° |
| 2026-05-06 14:17 | 38.89539 | 1.46761 | 2221 ft | 223 kts | 76° |
| 2026-05-06 14:18 | 38.89896 | 1.48766 | 2714 ft | 233 kts | 76° |
| 2026-05-06 14:18 | 38.90254 | 1.50798 | 3416 ft | 235 kts | 76° |
| 2026-05-06 14:18 | 38.90618 | 1.52856 | 4105 ft | 238 kts | 76° |
| 2026-05-06 14:18 | 38.90794 | 1.54980 | 4736 ft | 245 kts | 95° |
| 2026-05-06 14:19 | 38.90600 | 1.57260 | 5035 ft | 269 kts | 97° |
| 2026-05-06 14:19 | 38.90360 | 1.59728 | 5522 ft | 285 kts | 97° |
| 2026-05-06 14:19 | 38.90110 | 1.62272 | 6271 ft | 290 kts | 97° |
| 2026-05-06 14:19 | 38.89851 | 1.64847 | 7050 ft | 293 kts | 101° |
| 2026-05-06 14:20 | 38.89280 | 1.67367 | 7809 ft | 295 kts | 115° |
| 2026-05-06 14:20 | 38.88407 | 1.69765 | 8554 ft | 298 kts | 116° |
| 2026-05-06 14:20 | 38.87521 | 1.72185 | 9296 ft | 301 kts | 116° |
| 2026-05-06 14:20 | 38.86631 | 1.74633 | 10014 ft | 304 kts | 116° |
| 2026-05-06 14:21 | 38.85717 | 1.77154 | 10378 ft | 322 kts | 116° |
| 2026-05-06 14:21 | 38.84740 | 1.79850 | 10521 ft | 344 kts | 116° |
| 2026-05-06 14:21 | 38.83702 | 1.82711 | 10815 ft | 359 kts | 116° |
| 2026-05-06 14:21 | 38.82794 | 1.85713 | 11373 ft | 366 kts | 102° |
| 2026-05-06 14:22 | 38.82743 | 1.88981 | 11968 ft | 370 kts | 78° |
| 2026-05-06 14:22 | 38.83749 | 1.92004 | 12560 ft | 371 kts | 53° |
| 2026-05-06 14:22 | 38.85374 | 1.94580 | 13165 ft | 373 kts | 51° |
| 2026-05-06 14:22 | 38.86808 | 1.97382 | 13758 ft | 377 kts | 59° |
| 2026-05-06 14:23 | 38.87988 | 2.00410 | 14337 ft | 381 kts | 65° |
| 2026-05-06 14:23 | 38.89022 | 2.03556 | 14905 ft | 384 kts | 67° |
| 2026-05-06 14:23 | 38.90013 | 2.06760 | 15447 ft | 388 kts | 68° |
| 2026-05-06 14:23 | 38.91008 | 2.09937 | 15980 ft | 390 kts | 67° |
| 2026-05-06 14:24 | 38.92063 | 2.13164 | 16508 ft | 393 kts | 66° |
| 2026-05-06 14:24 | 38.93166 | 2.16389 | 17048 ft | 396 kts | 65° |
| 2026-05-06 14:24 | 38.94308 | 2.19627 | 17582 ft | 399 kts | 64° |
| 2026-05-06 14:24 | 38.95473 | 2.22873 | 18114 ft | 402 kts | 64° |
| 2026-05-06 14:25 | 38.96651 | 2.26153 | 18649 ft | 405 kts | 64° |
| 2026-05-06 14:25 | 38.97833 | 2.29458 | 19186 ft | 408 kts | 64° |
| 2026-05-06 14:25 | 38.99016 | 2.32795 | 19718 ft | 412 kts | 65° |
| 2026-05-06 14:25 | 39.00197 | 2.36159 | 20249 ft | 415 kts | 65° |
| 2026-05-06 14:26 | 39.01385 | 2.39558 | 20760 ft | 418 kts | 65° |
| 2026-05-06 14:26 | 39.02579 | 2.42973 | 21244 ft | 421 kts | 65° |
| 2026-05-06 14:26 | 39.03782 | 2.46419 | 21705 ft | 424 kts | 65° |
| 2026-05-06 14:26 | 39.04996 | 2.49889 | 22149 ft | 426 kts | 65° |
| 2026-05-06 14:27 | 39.06218 | 2.53377 | 22576 ft | 429 kts | 65° |
| 2026-05-06 14:27 | 39.07032 | 2.55699 | 22856 ft | 431 kts | 65° |
| 2026-05-06 14:27 | 39.08264 | 2.59223 | 23258 ft | 433 kts | 65° |
| 2026-05-06 14:27 | 39.09502 | 2.62773 | 23663 ft | 436 kts | 65° |
| 2026-05-06 14:28 | 39.10747 | 2.66350 | 24046 ft | 438 kts | 65° |
| 2026-05-06 14:28 | 39.11994 | 2.69939 | 24415 ft | 441 kts | 65° |
| 2026-05-06 14:28 | 39.13249 | 2.73554 | 24777 ft | 443 kts | 65° |
| 2026-05-06 14:28 | 39.14508 | 2.77191 | 25118 ft | 445 kts | 65° |
| 2026-05-06 14:29 | 39.15768 | 2.80841 | 25455 ft | 448 kts | 65° |
| 2026-05-06 14:29 | 39.17041 | 2.84520 | 25784 ft | 450 kts | 65° |
| 2026-05-06 14:29 | 39.18318 | 2.88211 | 26111 ft | 452 kts | 65° |
| 2026-05-06 14:29 | 39.19599 | 2.91921 | 26426 ft | 454 kts | 65° |
| 2026-05-06 14:30 | 39.20887 | 2.95650 | 26747 ft | 456 kts | 65° |
| 2026-05-06 14:30 | 39.22178 | 2.99399 | 27059 ft | 458 kts | 65° |
| 2026-05-06 14:30 | 39.23469 | 3.03167 | 27360 ft | 461 kts | 65° |
| 2026-05-06 14:30 | 39.24762 | 3.06956 | 27674 ft | 463 kts | 65° |
| 2026-05-06 14:31 | 39.26060 | 3.10765 | 27973 ft | 465 kts | 65° |
| 2026-05-06 14:31 | 39.27362 | 3.14579 | 28381 ft | 464 kts | 65° |
| 2026-05-06 14:31 | 39.28659 | 3.18381 | 28808 ft | 463 kts | 65° |
| 2026-05-06 14:31 | 39.29951 | 3.22181 | 29222 ft | 462 kts | 65° |
| 2026-05-06 14:32 | 39.31241 | 3.25975 | 29621 ft | 461 kts | 65° |
| 2026-05-06 14:32 | 39.32528 | 3.29766 | 30024 ft | 460 kts | 65° |
| 2026-05-06 14:32 | 39.33796 | 3.33501 | 30404 ft | 460 kts | 65° |
| 2026-05-06 14:32 | 39.35075 | 3.37281 | 30796 ft | 459 kts | 65° |
| 2026-05-06 14:33 | 39.36352 | 3.41062 | 31175 ft | 458 kts | 65° |
| 2026-05-06 14:33 | 39.37622 | 3.44834 | 31545 ft | 457 kts | 65° |
| 2026-05-06 14:33 | 39.38894 | 3.48601 | 31916 ft | 457 kts | 65° |
| 2026-05-06 14:33 | 39.40163 | 3.52358 | 32287 ft | 456 kts | 65° |
| 2026-05-06 14:34 | 39.41431 | 3.56121 | 32655 ft | 455 kts | 65° |
| 2026-05-06 14:34 | 39.42715 | 3.59862 | 33016 ft | 454 kts | 62° |
| 2026-05-06 14:34 | 39.44456 | 3.63253 | 33362 ft | 451 kts | 46° |
| 2026-05-06 14:34 | 39.46789 | 3.65913 | 33690 ft | 447 kts | 30° |
| 2026-05-06 14:35 | 39.49567 | 3.67672 | 33949 ft | 444 kts | 17° |
| 2026-05-06 14:35 | 39.52495 | 3.68933 | 34006 ft | 444 kts | 16° |
| 2026-05-06 14:35 | 39.58360 | 3.71419 | 34010 ft | 443 kts | 16° |
| 2026-05-06 14:36 | 39.64227 | 3.73916 | 34344 ft | 443 kts | 16° |
| 2026-05-06 14:36 | 39.67159 | 3.75170 | 34671 ft | 443 kts | 16° |
| 2026-05-06 14:36 | 39.70080 | 3.76424 | 34973 ft | 442 kts | 16° |
| 2026-05-06 14:37 | 39.75927 | 3.78948 | 35009 ft | 442 kts | 17° |
| 2026-05-06 14:37 | 39.81755 | 3.81469 | 35011 ft | 442 kts | 16° |
| 2026-05-06 14:38 | 39.87582 | 3.83989 | 35011 ft | 442 kts | 16° |
| 2026-05-06 14:38 | 39.93409 | 3.86506 | 35347 ft | 441 kts | 16° |
| 2026-05-06 14:39 | 39.96326 | 3.87767 | 35599 ft | 441 kts | 16° |
| 2026-05-06 14:39 | 39.99232 | 3.89024 | 35844 ft | 441 kts | 16° |
| 2026-05-06 14:39 | 40.02143 | 3.90287 | 35984 ft | 442 kts | 16° |
| 2026-05-06 14:39 | 40.05079 | 3.91561 | 36011 ft | 447 kts | 17° |
| 2026-05-06 14:40 | 40.11007 | 3.94138 | 36011 ft | 455 kts | 17° |
| 2026-05-06 14:40 | 40.17002 | 3.96746 | 36010 ft | 456 kts | 17° |
| 2026-05-06 14:41 | 40.23017 | 3.99379 | 36009 ft | 456 kts | 17° |
| 2026-05-06 14:41 | 40.29035 | 4.02013 | 36010 ft | 456 kts | 17° |
| 2026-05-06 14:42 | 40.35050 | 4.04644 | 36011 ft | 456 kts | 17° |
| 2026-05-06 14:42 | 40.41073 | 4.07286 | 36014 ft | 456 kts | 17° |
| 2026-05-06 14:43 | 40.44077 | 4.08608 | 35695 ft | 455 kts | 17° |
| 2026-05-06 14:43 | 40.47074 | 4.09931 | 35172 ft | 453 kts | 17° |
| 2026-05-06 14:43 | 40.50066 | 4.11254 | 34975 ft | 454 kts | 17° |
| 2026-05-06 14:43 | 40.53072 | 4.12581 | 35017 ft | 456 kts | 17° |
| 2026-05-06 14:44 | 40.59098 | 4.15241 | 35015 ft | 458 kts | 17° |
| 2026-05-06 14:45 | 40.68161 | 4.19253 | 35007 ft | 458 kts | 17° |
| 2026-05-06 14:45 | 40.74199 | 4.21935 | 35009 ft | 458 kts | 17° |
| 2026-05-06 14:46 | 40.80239 | 4.24621 | 35010 ft | 458 kts | 17° |
| 2026-05-06 14:46 | 40.86283 | 4.27305 | 35011 ft | 458 kts | 17° |
| 2026-05-06 14:47 | 40.92319 | 4.29998 | 35011 ft | 458 kts | 17° |
| 2026-05-06 14:47 | 40.98360 | 4.32701 | 35013 ft | 458 kts | 17° |
| 2026-05-06 14:48 | 41.04405 | 4.35409 | 35014 ft | 458 kts | 17° |
| 2026-05-06 14:48 | 41.10453 | 4.38124 | 35018 ft | 458 kts | 17° |
| 2026-05-06 14:49 | 41.16494 | 4.40836 | 35020 ft | 458 kts | 17° |
| 2026-05-06 14:49 | 41.22534 | 4.43558 | 35018 ft | 458 kts | 17° |
| 2026-05-06 14:50 | 41.28574 | 4.46291 | 35016 ft | 458 kts | 17° |
| 2026-05-06 14:50 | 41.34612 | 4.49027 | 35024 ft | 458 kts | 17° |
| 2026-05-06 14:51 | 41.40613 | 4.51738 | 35020 ft | 458 kts | 17° |
| 2026-05-06 14:51 | 41.46656 | 4.54485 | 35021 ft | 459 kts | 17° |
| 2026-05-06 14:52 | 41.52706 | 4.57241 | 35017 ft | 458 kts | 17° |
| 2026-05-06 14:52 | 41.58746 | 4.59991 | 35018 ft | 458 kts | 17° |
| 2026-05-06 14:53 | 41.64780 | 4.62746 | 35018 ft | 458 kts | 17° |
| 2026-05-06 14:53 | 41.70823 | 4.65517 | 35017 ft | 458 kts | 17° |
| 2026-05-06 14:54 | 41.76835 | 4.68193 | 35016 ft | 458 kts | 15° |
| 2026-05-06 14:54 | 41.82956 | 4.70580 | 35016 ft | 458 kts | 14° |
| 2026-05-06 14:55 | 41.89123 | 4.72912 | 35016 ft | 458 kts | 14° |
| 2026-05-06 14:55 | 41.95195 | 4.75293 | 35016 ft | 458 kts | 14° |
| 2026-05-06 14:56 | 42.01300 | 4.77725 | 35016 ft | 458 kts | 14° |
| 2026-05-06 14:56 | 42.07412 | 4.80177 | 35017 ft | 458 kts | 15° |
| 2026-05-06 14:57 | 42.13515 | 4.82622 | 35016 ft | 458 kts | 14° |
| 2026-05-06 14:57 | 42.19626 | 4.85062 | 35016 ft | 458 kts | 14° |
| 2026-05-06 14:58 | 42.25726 | 4.87515 | 35016 ft | 458 kts | 14° |
| 2026-05-06 14:58 | 42.31835 | 4.89966 | 35016 ft | 458 kts | 15° |
| 2026-05-06 14:59 | 42.37942 | 4.92434 | 35016 ft | 458 kts | 15° |
| 2026-05-06 14:59 | 42.44045 | 4.94896 | 35016 ft | 458 kts | 15° |
| 2026-05-06 15:00 | 42.50161 | 4.97365 | 35016 ft | 458 kts | 14° |
| 2026-05-06 15:00 | 42.56265 | 4.99823 | 35016 ft | 458 kts | 14° |
| 2026-05-06 15:01 | 42.62380 | 5.02270 | 35015 ft | 458 kts | 14° |
| 2026-05-06 15:01 | 42.68495 | 5.04682 | 35015 ft | 458 kts | 14° |
| 2026-05-06 15:02 | 42.74582 | 5.07082 | 35020 ft | 458 kts | 14° |
| 2026-05-06 15:02 | 42.80572 | 5.10050 | 35015 ft | 460 kts | 27° |
| 2026-05-06 15:03 | 42.85634 | 5.15382 | 35010 ft | 463 kts | 46° |
| 2026-05-06 15:03 | 42.89641 | 5.22278 | 35004 ft | 464 kts | 51° |
| 2026-05-06 15:04 | 42.93592 | 5.29250 | 35007 ft | 465 kts | 51° |
| 2026-05-06 15:04 | 42.97550 | 5.36243 | 35008 ft | 465 kts | 51° |
| 2026-05-06 15:05 | 43.01497 | 5.43252 | 35006 ft | 465 kts | 51° |
| 2026-05-06 15:05 | 43.05437 | 5.50265 | 35015 ft | 465 kts | 51° |
| 2026-05-06 15:06 | 43.09381 | 5.57290 | 35010 ft | 466 kts | 51° |
| 2026-05-06 15:06 | 43.13507 | 5.64118 | 35017 ft | 465 kts | 47° |
| 2026-05-06 15:07 | 43.17868 | 5.70648 | 35015 ft | 465 kts | 46° |
| 2026-05-06 15:07 | 43.22388 | 5.76891 | 35006 ft | 462 kts | 34° |
| 2026-05-06 15:07 | 43.25172 | 5.79035 | 35005 ft | 458 kts | 20° |
| 2026-05-06 15:08 | 43.28122 | 5.80680 | 34999 ft | 458 kts | 20° |
| 2026-05-06 15:08 | 43.34049 | 5.83932 | 34984 ft | 460 kts | 20° |
| 2026-05-06 15:09 | 43.40002 | 5.87196 | 34995 ft | 461 kts | 20° |
| 2026-05-06 15:09 | 43.45962 | 5.90483 | 35004 ft | 461 kts | 20° |
| 2026-05-06 15:10 | 43.51918 | 5.93784 | 35014 ft | 461 kts | 20° |
| 2026-05-06 15:10 | 43.57872 | 5.97094 | 35009 ft | 461 kts | 20° |
| 2026-05-06 15:11 | 43.63826 | 6.00405 | 35009 ft | 461 kts | 20° |
| 2026-05-06 15:11 | 43.69774 | 6.03716 | 35001 ft | 462 kts | 20° |
| 2026-05-06 15:12 | 43.74732 | 6.06486 | 35003 ft | 462 kts | 20° |
| 2026-05-06 15:12 | 43.80648 | 6.09989 | 35006 ft | 463 kts | 24° |
| 2026-05-06 15:13 | 43.86424 | 6.13960 | 35009 ft | 464 kts | 25° |
| 2026-05-06 15:13 | 43.92167 | 6.18053 | 35005 ft | 464 kts | 25° |
| 2026-05-06 15:14 | 43.97947 | 6.22068 | 34999 ft | 464 kts | 24° |
| 2026-05-06 15:14 | 44.03750 | 6.26015 | 34997 ft | 464 kts | 24° |
| 2026-05-06 15:15 | 44.09561 | 6.29982 | 35000 ft | 465 kts | 24° |
| 2026-05-06 15:15 | 44.15362 | 6.33969 | 34997 ft | 465 kts | 25° |
| 2026-05-06 15:16 | 44.21173 | 6.37977 | 34995 ft | 466 kts | 24° |
| 2026-05-06 15:16 | 44.26983 | 6.41985 | 34982 ft | 467 kts | 25° |
| 2026-05-06 15:17 | 44.32779 | 6.45998 | 34980 ft | 469 kts | 25° |
| 2026-05-06 15:17 | 44.38633 | 6.50064 | 34985 ft | 470 kts | 25° |
| 2026-05-06 15:18 | 44.44442 | 6.54116 | 35008 ft | 471 kts | 25° |
| 2026-05-06 15:18 | 44.50306 | 6.58204 | 34986 ft | 471 kts | 25° |
| 2026-05-06 15:19 | 44.56185 | 6.62315 | 35002 ft | 472 kts | 25° |
| 2026-05-06 15:19 | 44.62071 | 6.66431 | 34986 ft | 473 kts | 25° |
| 2026-05-06 15:20 | 44.68046 | 6.70260 | 35008 ft | 469 kts | 13° |
| 2026-05-06 15:20 | 44.71241 | 6.70973 | 35016 ft | 465 kts | 1° |
| 2026-05-06 15:20 | 44.74467 | 6.71161 | 35002 ft | 464 kts | 0° |
| 2026-05-06 15:21 | 44.80936 | 6.71476 | 34993 ft | 465 kts | 0° |
| 2026-05-06 15:21 | 44.87420 | 6.71783 | 34997 ft | 466 kts | 0° |
| 2026-05-06 15:22 | 44.93914 | 6.72095 | 34998 ft | 467 kts | 0° |
| 2026-05-06 15:22 | 45.00413 | 6.72416 | 35001 ft | 468 kts | 0° |
| 2026-05-06 15:23 | 45.06880 | 6.72739 | 35011 ft | 468 kts | 0° |
| 2026-05-06 15:23 | 45.13381 | 6.73067 | 35014 ft | 468 kts | 0° |
| 2026-05-06 15:24 | 45.19889 | 6.73383 | 35002 ft | 468 kts | 0° |
| 2026-05-06 15:24 | 45.26400 | 6.73702 | 35018 ft | 467 kts | 0° |
| 2026-05-06 15:25 | 45.32906 | 6.74031 | 34983 ft | 469 kts | 0° |
| 2026-05-06 15:25 | 45.39449 | 6.74363 | 35007 ft | 471 kts | 0° |
| 2026-05-06 15:26 | 45.45966 | 6.74678 | 35006 ft | 470 kts | 359° |
| 2026-05-06 15:26 | 45.52489 | 6.74495 | 35015 ft | 468 kts | 355° |
| 2026-05-06 15:27 | 45.58972 | 6.73885 | 35036 ft | 466 kts | 354° |
| 2026-05-06 15:27 | 45.65425 | 6.73298 | 35026 ft | 464 kts | 355° |
| 2026-05-06 15:28 | 45.71888 | 6.72848 | 35016 ft | 465 kts | 355° |
| 2026-05-06 15:28 | 45.78366 | 6.72445 | 35012 ft | 466 kts | 355° |
| 2026-05-06 15:29 | 45.84839 | 6.72016 | 35026 ft | 464 kts | 355° |
| 2026-05-06 15:29 | 45.91284 | 6.71575 | 35035 ft | 463 kts | 355° |
| 2026-05-06 15:30 | 45.97703 | 6.71128 | 35018 ft | 462 kts | 355° |
| 2026-05-06 15:30 | 46.04139 | 6.70680 | 34993 ft | 463 kts | 355° |
| 2026-05-06 15:31 | 46.10574 | 6.70220 | 35020 ft | 462 kts | 353° |
| 2026-05-06 15:31 | 46.16772 | 6.68126 | 35012 ft | 458 kts | 339° |
| 2026-05-06 15:32 | 46.25819 | 6.63717 | 35021 ft | 457 kts | 339° |
| 2026-05-06 15:32 | 46.31804 | 6.60800 | 35026 ft | 456 kts | 340° |
| 2026-05-06 15:33 | 46.37810 | 6.57876 | 35027 ft | 455 kts | 339° |
| 2026-05-06 15:33 | 46.43802 | 6.54939 | 35031 ft | 454 kts | 339° |
| 2026-05-06 15:34 | 46.49777 | 6.51993 | 35030 ft | 453 kts | 339° |
| 2026-05-06 15:34 | 46.55745 | 6.49061 | 35028 ft | 453 kts | 339° |
| 2026-05-06 15:35 | 46.61715 | 6.46123 | 35023 ft | 453 kts | 339° |
| 2026-05-06 15:35 | 46.67682 | 6.43180 | 35016 ft | 453 kts | 339° |
| 2026-05-06 15:36 | 46.73651 | 6.40218 | 35006 ft | 453 kts | 339° |
| 2026-05-06 15:36 | 46.79599 | 6.37265 | 35000 ft | 454 kts | 339° |
| 2026-05-06 15:37 | 46.85590 | 6.34282 | 34999 ft | 455 kts | 339° |
| 2026-05-06 15:37 | 46.91586 | 6.31297 | 35012 ft | 455 kts | 339° |
| 2026-05-06 15:38 | 46.97577 | 6.28312 | 35011 ft | 455 kts | 339° |
| 2026-05-06 15:38 | 47.03563 | 6.25307 | 35010 ft | 454 kts | 339° |
| 2026-05-06 15:39 | 47.09365 | 6.21740 | 35016 ft | 452 kts | 332° |
| 2026-05-06 15:39 | 47.15007 | 6.17673 | 35019 ft | 451 kts | 332° |
| 2026-05-06 15:40 | 47.20645 | 6.13613 | 35022 ft | 451 kts | 332° |
| 2026-05-06 15:40 | 47.26272 | 6.09528 | 35018 ft | 451 kts | 332° |
| 2026-05-06 15:41 | 47.31905 | 6.05496 | 35020 ft | 451 kts | 336° |
| 2026-05-06 15:41 | 47.37973 | 6.03414 | 35017 ft | 454 kts | 355° |
| 2026-05-06 15:42 | 47.44308 | 6.03482 | 35014 ft | 455 kts | 359° |
| 2026-05-06 15:42 | 47.50649 | 6.03636 | 35010 ft | 456 kts | 359° |
| 2026-05-06 15:43 | 47.56993 | 6.03766 | 35017 ft | 456 kts | 359° |
| 2026-05-06 15:43 | 47.63337 | 6.03900 | 35016 ft | 456 kts | 359° |
| 2026-05-06 15:44 | 47.69678 | 6.04052 | 35015 ft | 456 kts | 359° |
| 2026-05-06 15:44 | 47.75989 | 6.04863 | 35012 ft | 458 kts | 12° |
| 2026-05-06 15:45 | 47.82176 | 6.07178 | 35017 ft | 459 kts | 12° |
| 2026-05-06 15:45 | 47.88369 | 6.09515 | 35014 ft | 459 kts | 12° |
| 2026-05-06 15:46 | 47.94554 | 6.11844 | 35008 ft | 459 kts | 12° |
| 2026-05-06 15:46 | 48.00750 | 6.14189 | 35008 ft | 459 kts | 12° |
| 2026-05-06 15:47 | 48.06949 | 6.16543 | 35008 ft | 459 kts | 12° |
| 2026-05-06 15:47 | 48.13148 | 6.18896 | 35008 ft | 460 kts | 12° |
| 2026-05-06 15:48 | 48.19315 | 6.21229 | 35014 ft | 460 kts | 12° |
| 2026-05-06 15:48 | 48.25514 | 6.23589 | 35012 ft | 460 kts | 12° |
| 2026-05-06 15:49 | 48.31712 | 6.25971 | 35013 ft | 460 kts | 12° |
| 2026-05-06 15:49 | 48.37926 | 6.28360 | 35015 ft | 460 kts | 12° |
| 2026-05-06 15:50 | 48.44124 | 6.30742 | 35015 ft | 459 kts | 12° |
| 2026-05-06 15:50 | 48.50313 | 6.33126 | 35013 ft | 459 kts | 12° |
| 2026-05-06 15:51 | 48.56512 | 6.35523 | 35014 ft | 459 kts | 12° |
| 2026-05-06 15:51 | 48.62707 | 6.37928 | 35018 ft | 459 kts | 12° |
| 2026-05-06 15:52 | 48.68972 | 6.39462 | 35016 ft | 456 kts | 1° |
| 2026-05-06 15:52 | 48.75309 | 6.40079 | 35015 ft | 456 kts | 2° |
| 2026-05-06 15:53 | 48.81639 | 6.40723 | 35015 ft | 456 kts | 2° |
| 2026-05-06 15:53 | 48.87978 | 6.41372 | 35013 ft | 456 kts | 2° |
| 2026-05-06 15:54 | 48.94273 | 6.42003 | 35012 ft | 456 kts | 2° |
| 2026-05-06 15:54 | 49.00649 | 6.42649 | 35015 ft | 456 kts | 2° |
| 2026-05-06 15:55 | 49.06946 | 6.43303 | 35015 ft | 456 kts | 2° |
| 2026-05-06 15:55 | 49.13246 | 6.42922 | 35015 ft | 452 kts | 346° |
| 2026-05-06 15:56 | 49.19318 | 6.40501 | 35016 ft | 451 kts | 343° |
| 2026-05-06 15:56 | 49.25381 | 6.38009 | 35014 ft | 451 kts | 343° |
| 2026-05-06 15:57 | 49.28402 | 6.36772 | 35303 ft | 445 kts | 343° |
| 2026-05-06 15:57 | 49.31367 | 6.35565 | 35859 ft | 439 kts | 343° |
| 2026-05-06 15:57 | 49.34334 | 6.34353 | 35655 ft | 442 kts | 343° |
| 2026-05-06 15:57 | 49.37313 | 6.33121 | 35138 ft | 442 kts | 343° |
| 2026-05-06 15:58 | 49.40294 | 6.31878 | 34965 ft | 446 kts | 343° |
| 2026-05-06 15:58 | 49.43294 | 6.30626 | 35010 ft | 449 kts | 343° |
| 2026-05-06 15:58 | 49.49337 | 6.28108 | 35008 ft | 450 kts | 343° |
| 2026-05-06 15:59 | 49.55392 | 6.25607 | 35007 ft | 451 kts | 343° |
| 2026-05-06 15:59 | 49.61460 | 6.23127 | 35008 ft | 451 kts | 343° |
| 2026-05-06 16:00 | 49.67489 | 6.20676 | 34789 ft | 450 kts | 343° |
| 2026-05-06 16:00 | 49.70558 | 6.19420 | 33628 ft | 461 kts | 343° |
| 2026-05-06 16:00 | 49.73684 | 6.18129 | 32508 ft | 469 kts | 343° |
| 2026-05-06 16:01 | 49.75780 | 6.17261 | 31860 ft | 471 kts | 343° |
| 2026-05-06 16:01 | 49.78950 | 6.15948 | 31073 ft | 469 kts | 343° |
| 2026-05-06 16:01 | 49.82076 | 6.14653 | 30565 ft | 462 kts | 343° |
| 2026-05-06 16:01 | 49.85185 | 6.13474 | 30034 ft | 458 kts | 349° |
| 2026-05-06 16:02 | 49.88318 | 6.13013 | 29794 ft | 449 kts | 357° |
| 2026-05-06 16:02 | 49.91418 | 6.13021 | 29340 ft | 443 kts | 358° |
| 2026-05-06 16:02 | 49.94487 | 6.13037 | 28835 ft | 439 kts | 358° |
| 2026-05-06 16:02 | 49.97517 | 6.13051 | 28068 ft | 431 kts | 358° |
| 2026-05-06 16:03 | 50.00505 | 6.13065 | 27135 ft | 426 kts | 358° |
| 2026-05-06 16:03 | 50.03444 | 6.13077 | 26435 ft | 415 kts | 358° |
| 2026-05-06 16:03 | 50.06278 | 6.13087 | 25944 ft | 401 kts | 358° |
| 2026-05-06 16:03 | 50.09035 | 6.13098 | 25424 ft | 391 kts | 358° |
| 2026-05-06 16:04 | 50.11720 | 6.13110 | 24931 ft | 383 kts | 358° |
| 2026-05-06 16:04 | 50.14388 | 6.13125 | 24443 ft | 383 kts | 358° |
| 2026-05-06 16:04 | 50.17045 | 6.13143 | 23972 ft | 381 kts | 358° |
| 2026-05-06 16:04 | 50.19705 | 6.13162 | 23497 ft | 382 kts | 358° |
| 2026-05-06 16:05 | 50.22365 | 6.13180 | 23034 ft | 382 kts | 358° |
| 2026-05-06 16:05 | 50.25046 | 6.13195 | 22569 ft | 380 kts | 358° |
| 2026-05-06 16:05 | 50.27691 | 6.13411 | 22109 ft | 381 kts | 6° |
| 2026-05-06 16:05 | 50.30236 | 6.14356 | 21662 ft | 383 kts | 17° |
| 2026-05-06 16:06 | 50.32666 | 6.16065 | 21187 ft | 384 kts | 28° |
| 2026-05-06 16:06 | 50.34940 | 6.18357 | 20707 ft | 383 kts | 31° |
| 2026-05-06 16:06 | 50.37161 | 6.20650 | 20221 ft | 382 kts | 31° |
| 2026-05-06 16:06 | 50.39357 | 6.22910 | 19727 ft | 381 kts | 31° |
| 2026-05-06 16:07 | 50.41576 | 6.25192 | 19223 ft | 380 kts | 31° |
| 2026-05-06 16:07 | 50.43783 | 6.27459 | 18716 ft | 379 kts | 31° |
| 2026-05-06 16:07 | 50.45986 | 6.29724 | 18204 ft | 378 kts | 31° |
| 2026-05-06 16:07 | 50.48185 | 6.31988 | 17677 ft | 377 kts | 31° |
| 2026-05-06 16:08 | 50.50381 | 6.34229 | 17156 ft | 376 kts | 30° |
| 2026-05-06 16:08 | 50.52606 | 6.36368 | 16638 ft | 374 kts | 28° |
| 2026-05-06 16:08 | 50.54848 | 6.38427 | 16121 ft | 373 kts | 28° |
| 2026-05-06 16:08 | 50.57093 | 6.40443 | 15604 ft | 372 kts | 27° |
| 2026-05-06 16:09 | 50.59341 | 6.42453 | 15070 ft | 372 kts | 27° |
| 2026-05-06 16:09 | 50.61581 | 6.44472 | 14555 ft | 370 kts | 28° |
| 2026-05-06 16:09 | 50.63799 | 6.46494 | 14031 ft | 368 kts | 28° |
| 2026-05-06 16:09 | 50.66009 | 6.48524 | 13513 ft | 367 kts | 28° |
| 2026-05-06 16:10 | 50.68207 | 6.50555 | 12986 ft | 366 kts | 28° |
| 2026-05-06 16:10 | 50.70447 | 6.52442 | 12455 ft | 362 kts | 18° |
| 2026-05-06 16:10 | 50.72880 | 6.53229 | 11926 ft | 355 kts | 2° |
| 2026-05-06 16:10 | 50.75336 | 6.53517 | 11402 ft | 353 kts | 0° |
| 2026-05-06 16:11 | 50.77783 | 6.53622 | 10875 ft | 352 kts | 358° |
| 2026-05-06 16:11 | 50.80196 | 6.53683 | 10738 ft | 338 kts | 358° |
| 2026-05-06 16:11 | 50.82509 | 6.53742 | 10631 ft | 327 kts | 358° |
| 2026-05-06 16:11 | 50.84749 | 6.53807 | 10497 ft | 317 kts | 358° |
| 2026-05-06 16:12 | 50.86897 | 6.53877 | 10327 ft | 299 kts | 358° |
| 2026-05-06 16:12 | 50.88946 | 6.53951 | 9879 ft | 291 kts | 358° |
| 2026-05-06 16:12 | 50.90827 | 6.54020 | 9417 ft | 287 kts | 358° |
| 2026-05-06 16:12 | 50.92798 | 6.54096 | 9131 ft | 275 kts | 358° |
| 2026-05-06 16:13 | 50.94659 | 6.54177 | 8964 ft | 259 kts | 358° |
| 2026-05-06 16:13 | 50.96435 | 6.54264 | 8608 ft | 253 kts | 358° |
| 2026-05-06 16:13 | 50.98182 | 6.54348 | 8169 ft | 250 kts | 358° |
| 2026-05-06 16:13 | 50.99916 | 6.54435 | 7753 ft | 249 kts | 358° |
| 2026-05-06 16:14 | 51.01633 | 6.54524 | 7304 ft | 246 kts | 358° |
| 2026-05-06 16:14 | 51.03344 | 6.54609 | 6895 ft | 246 kts | 358° |
| 2026-05-06 16:14 | 51.05041 | 6.54700 | 6468 ft | 243 kts | 358° |
| 2026-05-06 16:14 | 51.06728 | 6.54792 | 6091 ft | 241 kts | 358° |
| 2026-05-06 16:15 | 51.08382 | 6.54886 | 5652 ft | 240 kts | 359° |
| 2026-05-06 16:15 | 51.10049 | 6.54980 | 5246 ft | 239 kts | 358° |
| 2026-05-06 16:15 | 51.11708 | 6.55073 | 4840 ft | 237 kts | 358° |
| 2026-05-06 16:15 | 51.13349 | 6.55162 | 4398 ft | 235 kts | 358° |
| 2026-05-06 16:16 | 51.14981 | 6.55247 | 3962 ft | 234 kts | 358° |
| 2026-05-06 16:16 | 51.16580 | 6.55334 | 3742 ft | 222 kts | 360° |
| 2026-05-06 16:16 | 51.18089 | 6.55867 | 3282 ft | 229 kts | 22° |
| 2026-05-06 16:16 | 51.19375 | 6.57324 | 2940 ft | 226 kts | 45° |
| 2026-05-06 16:17 | 51.20335 | 6.59260 | 2629 ft | 219 kts | 50° |
| 2026-05-06 16:17 | 51.21241 | 6.61156 | 2369 ft | 209 kts | 50° |
| 2026-05-06 16:17 | 51.22104 | 6.62957 | 2081 ft | 201 kts | 50° |
| 2026-05-06 16:17 | 51.22929 | 6.64680 | 1806 ft | 187 kts | 50° |
| 2026-05-06 16:18 | 51.23675 | 6.66236 | 1560 ft | 169 kts | 50° |
| 2026-05-06 16:18 | 51.24361 | 6.67670 | 1319 ft | 158 kts | 50° |
| 2026-05-06 16:18 | 51.25018 | 6.69043 | 1141 ft | 155 kts | 50° |
| 2026-05-06 16:18 | 51.25663 | 6.70407 | 906 ft | 153 kts | 50° |
| 2026-05-06 16:19 | 51.26309 | 6.71744 | 736 ft | 151 kts | 50° |
| 2026-05-06 16:19 | 51.26950 | 6.73079 | 541 ft | 151 kts | 50° |
| 2026-05-06 16:19 | 51.27581 | 6.74405 | 334 ft | 149 kts | 50° |
| 2026-05-06 16:19 | 51.28207 | 6.75717 | 164 ft | 148 kts | 51° |
| 2026-05-06 16:20 | 51.28786 | 6.76928 | 132 ft | 116 kts | 53° |
| 2026-05-06 16:20 | 51.29089 | 6.77567 | 131 ft | 31 kts | 52° |
| 2026-05-06 16:20 | 51.29220 | 6.77844 | 137 ft | 33 kts | 53° |
| 2026-05-06 16:20 | 51.29298 | 6.78076 | 142 ft | 14 kts | 92° |
| 2026-05-06 16:21 | 51.29234 | 6.78203 | 138 ft | 15 kts | 164° |
| 2026-05-06 16:21 | 51.29133 | 6.78127 | 134 ft | 19 kts | 235° |
| 2026-05-06 16:21 | 51.29070 | 6.77994 | 127 ft | 12 kts | 234° |
| 2026-05-06 16:21 | 51.29004 | 6.77855 | 128 ft | 15 kts | 233° |
| 2026-05-06 16:22 | 51.28934 | 6.77712 | 130 ft | 20 kts | 230° |
| 2026-05-06 16:22 | 51.28854 | 6.77541 | 128 ft | 22 kts | 234° |
| 2026-05-06 16:22 | 51.28782 | 6.77390 | 130 ft | 18 kts | 232° |
| 2026-05-06 16:22 | 51.28703 | 6.77226 | 128 ft | 20 kts | 233° |
| 2026-05-06 16:23 | 51.28619 | 6.77048 | 130 ft | 20 kts | 232° |
| 2026-05-06 16:23 | 51.28540 | 6.76880 | 124 ft | 18 kts | 232° |
| 2026-05-06 16:23 | 51.28459 | 6.76714 | 124 ft | 20 kts | 232° |
| 2026-05-06 16:23 | 51.28382 | 6.76551 | 126 ft | 18 kts | 232° |
| 2026-05-06 16:24 | 51.28304 | 6.76387 | 125 ft | 18 kts | 231° |
| 2026-05-06 16:24 | 51.28232 | 6.76230 | 128 ft | 18 kts | 233° |
| 2026-05-06 16:24 | 51.28159 | 6.76083 | 127 ft | 11 kts | 233° |
| 2026-05-06 16:24 | 51.28090 | 6.76039 | 128 ft | 13 kts | 165° |
| 2026-05-06 16:25 | 51.27995 | 6.76046 | 128 ft | 14 kts | 180° |
| 2026-05-06 16:25 | 51.27949 | 6.76057 | 129 ft | 6 kts | 142° |
| 2026-05-06 16:25 | 51.27943 | 6.76122 | 129 ft | 5 kts | 90° |
| 2026-05-06 16:25 | 51.27942 | 6.76168 | 130 ft | 3 kts | 91° |
| 2026-05-06 16:26 | 51.27942 | 6.76174 | 130 ft | 0 kts | 91° |